sensor_id;sensor_type;location;lat;lon;timestamp;P1;durP1;ratioP1;P2;durP2;ratioP2
23404;SDS011;11875;49.356;2.718;2023-04-03T00:01:28;10.43;;;6.83;;
23404;SDS011;11875;49.356;2.718;2023-04-03T00:03:54;8.83;;;7.10;;
23404;SDS011;11875;49.356;2.718;2023-04-03T00:06:20;12.30;;;7.10;;
23404;SDS011;11875;49.356;2.718;2023-04-03T00:08:46;8.90;;;7.13;;
23404;SDS011;11875;49.356;2.718;2023-04-03T00:11:12;9.23;;;6.60;;
23404;SDS011;11875;49.356;2.718;2023-04-03T00:13:38;8.43;;;7.00;;
23404;SDS011;11875;49.356;2.718;2023-04-03T00:16:04;12.70;;;7.10;;
23404;SDS011;11875;49.356;2.718;2023-04-03T00:18:31;8.60;;;6.50;;
23404;SDS011;11875;49.356;2.718;2023-04-03T00:20:57;10.13;;;7.07;;
23404;SDS011;11875;49.356;2.718;2023-04-03T00:23:23;10.30;;;7.07;;
23404;SDS011;11875;49.356;2.718;2023-04-03T00:25:48;9.80;;;6.67;;
23404;SDS011;11875;49.356;2.718;2023-04-03T00:28:14;10.00;;;6.97;;
23404;SDS011;11875;49.356;2.718;2023-04-03T00:30:40;10.00;;;7.00;;
23404;SDS011;11875;49.356;2.718;2023-04-03T00:33:06;10.47;;;6.70;;
23404;SDS011;11875;49.356;2.718;2023-04-03T00:35:32;9.30;;;6.77;;
23404;SDS011;11875;49.356;2.718;2023-04-03T00:38:00;12.93;;;7.97;;
23404;SDS011;11875;49.356;2.718;2023-04-03T00:40:26;14.53;;;7.57;;
23404;SDS011;11875;49.356;2.718;2023-04-03T00:42:55;10.70;;;7.40;;
23404;SDS011;11875;49.356;2.718;2023-04-03T00:45:28;8.43;;;6.47;;
23404;SDS011;11875;49.356;2.718;2023-04-03T00:47:57;10.53;;;7.07;;
23404;SDS011;11875;49.356;2.718;2023-04-03T00:50:26;9.57;;;6.83;;
23404;SDS011;11875;49.356;2.718;2023-04-03T00:52:54;10.27;;;6.73;;
23404;SDS011;11875;49.356;2.718;2023-04-03T00:55:21;7.97;;;6.67;;
23404;SDS011;11875;49.356;2.718;2023-04-03T00:57:47;10.27;;;6.63;;
23404;SDS011;11875;49.356;2.718;2023-04-03T01:00:14;11.80;;;6.40;;
23404;SDS011;11875;49.356;2.718;2023-04-03T01:02:43;9.90;;;6.77;;
23404;SDS011;11875;49.356;2.718;2023-04-03T01:05:10;9.73;;;6.07;;
23404;SDS011;11875;49.356;2.718;2023-04-03T01:07:36;10.57;;;7.03;;
23404;SDS011;11875;49.356;2.718;2023-04-03T01:10:04;10.93;;;6.77;;
23404;SDS011;11875;49.356;2.718;2023-04-03T01:12:34;8.50;;;6.33;;
23404;SDS011;11875;49.356;2.718;2023-04-03T01:25:26;8.47;;;6.27;;
23404;SDS011;11875;49.356;2.718;2023-04-03T01:27:52;9.23;;;6.77;;
23404;SDS011;11875;49.356;2.718;2023-04-03T01:30:18;8.53;;;6.50;;
23404;SDS011;11875;49.356;2.718;2023-04-03T01:32:45;8.60;;;6.40;;
23404;SDS011;11875;49.356;2.718;2023-04-03T01:35:11;7.73;;;6.03;;
23404;SDS011;11875;49.356;2.718;2023-04-03T01:37:37;8.50;;;6.13;;
23404;SDS011;11875;49.356;2.718;2023-04-03T01:40:03;9.40;;;6.17;;
23404;SDS011;11875;49.356;2.718;2023-04-03T01:42:30;9.17;;;6.90;;
23404;SDS011;11875;49.356;2.718;2023-04-03T01:44:56;10.40;;;6.80;;
23404;SDS011;11875;49.356;2.718;2023-04-03T01:47:21;13.27;;;7.27;;
23404;SDS011;11875;49.356;2.718;2023-04-03T01:49:47;11.40;;;6.87;;
23404;SDS011;11875;49.356;2.718;2023-04-03T01:52:13;7.80;;;6.50;;
23404;SDS011;11875;49.356;2.718;2023-04-03T01:54:38;8.53;;;7.20;;
23404;SDS011;11875;49.356;2.718;2023-04-03T01:57:04;11.57;;;7.53;;
23404;SDS011;11875;49.356;2.718;2023-04-03T01:59:30;9.40;;;6.97;;
23404;SDS011;11875;49.356;2.718;2023-04-03T02:01:56;9.50;;;6.60;;
23404;SDS011;11875;49.356;2.718;2023-04-03T02:04:21;9.53;;;7.30;;
23404;SDS011;11875;49.356;2.718;2023-04-03T02:06:47;8.50;;;6.83;;
23404;SDS011;11875;49.356;2.718;2023-04-03T02:09:13;9.33;;;7.03;;
23404;SDS011;11875;49.356;2.718;2023-04-03T02:11:39;9.10;;;6.73;;
23404;SDS011;11875;49.356;2.718;2023-04-03T02:14:04;9.23;;;6.83;;
23404;SDS011;11875;49.356;2.718;2023-04-03T02:16:31;8.47;;;6.43;;
23404;SDS011;11875;49.356;2.718;2023-04-03T02:18:56;9.03;;;6.90;;
23404;SDS011;11875;49.356;2.718;2023-04-03T02:21:22;9.30;;;6.50;;
23404;SDS011;11875;49.356;2.718;2023-04-03T02:23:48;10.27;;;7.13;;
23404;SDS011;11875;49.356;2.718;2023-04-03T02:26:14;8.93;;;7.20;;
23404;SDS011;11875;49.356;2.718;2023-04-03T02:28:40;9.33;;;6.73;;
23404;SDS011;11875;49.356;2.718;2023-04-03T02:31:06;9.47;;;7.10;;
23404;SDS011;11875;49.356;2.718;2023-04-03T02:33:33;8.53;;;6.70;;
23404;SDS011;11875;49.356;2.718;2023-04-03T02:36:00;8.60;;;6.87;;
23404;SDS011;11875;49.356;2.718;2023-04-03T02:38:26;10.47;;;7.03;;
23404;SDS011;11875;49.356;2.718;2023-04-03T02:40:52;8.90;;;6.87;;
23404;SDS011;11875;49.356;2.718;2023-04-03T02:43:17;8.03;;;6.93;;
23404;SDS011;11875;49.356;2.718;2023-04-03T02:45:43;9.23;;;6.17;;
23404;SDS011;11875;49.356;2.718;2023-04-03T02:48:09;10.53;;;7.57;;
23404;SDS011;11875;49.356;2.718;2023-04-03T02:50:34;9.00;;;7.17;;
23404;SDS011;11875;49.356;2.718;2023-04-03T02:53:00;8.60;;;6.83;;
23404;SDS011;11875;49.356;2.718;2023-04-03T02:55:26;8.40;;;7.13;;
23404;SDS011;11875;49.356;2.718;2023-04-03T02:57:51;10.13;;;7.23;;
23404;SDS011;11875;49.356;2.718;2023-04-03T03:00:17;9.10;;;6.60;;
23404;SDS011;11875;49.356;2.718;2023-04-03T03:02:43;8.17;;;6.50;;
23404;SDS011;11875;49.356;2.718;2023-04-03T03:05:08;9.10;;;7.07;;
23404;SDS011;11875;49.356;2.718;2023-04-03T03:07:34;8.47;;;6.57;;
23404;SDS011;11875;49.356;2.718;2023-04-03T03:10:00;9.93;;;6.83;;
23404;SDS011;11875;49.356;2.718;2023-04-03T03:12:25;9.13;;;6.87;;
23404;SDS011;11875;49.356;2.718;2023-04-03T03:14:51;8.23;;;6.50;;
23404;SDS011;11875;49.356;2.718;2023-04-03T03:17:17;9.17;;;6.73;;
23404;SDS011;11875;49.356;2.718;2023-04-03T03:19:43;9.03;;;7.30;;
23404;SDS011;11875;49.356;2.718;2023-04-03T03:22:09;9.07;;;6.80;;
23404;SDS011;11875;49.356;2.718;2023-04-03T03:24:34;8.63;;;6.60;;
23404;SDS011;11875;49.356;2.718;2023-04-03T03:27:00;8.60;;;6.63;;
23404;SDS011;11875;49.356;2.718;2023-04-03T03:29:25;9.00;;;6.73;;
23404;SDS011;11875;49.356;2.718;2023-04-03T03:31:51;9.37;;;6.80;;
23404;SDS011;11875;49.356;2.718;2023-04-03T03:34:17;8.63;;;6.83;;
23404;SDS011;11875;49.356;2.718;2023-04-03T03:36:42;10.10;;;6.97;;
23404;SDS011;11875;49.356;2.718;2023-04-03T03:39:09;10.03;;;7.23;;
23404;SDS011;11875;49.356;2.718;2023-04-03T03:41:35;8.53;;;7.33;;
23404;SDS011;11875;49.356;2.718;2023-04-03T03:44:00;10.97;;;7.87;;
23404;SDS011;11875;49.356;2.718;2023-04-03T03:46:26;11.17;;;8.00;;
23404;SDS011;11875;49.356;2.718;2023-04-03T03:48:51;10.17;;;7.17;;
23404;SDS011;11875;49.356;2.718;2023-04-03T03:51:17;9.63;;;7.77;;
23404;SDS011;11875;49.356;2.718;2023-04-03T03:53:43;10.90;;;7.20;;
23404;SDS011;11875;49.356;2.718;2023-04-03T03:56:08;10.53;;;7.67;;
23404;SDS011;11875;49.356;2.718;2023-04-03T03:58:35;12.20;;;8.27;;
23404;SDS011;11875;49.356;2.718;2023-04-03T04:01:01;10.90;;;7.93;;
23404;SDS011;11875;49.356;2.718;2023-04-03T04:03:31;12.47;;;8.17;;
23404;SDS011;11875;49.356;2.718;2023-04-03T04:05:57;11.77;;;7.87;;
23404;SDS011;11875;49.356;2.718;2023-04-03T04:08:22;12.33;;;7.73;;
23404;SDS011;11875;49.356;2.718;2023-04-03T04:10:48;9.73;;;8.07;;
23404;SDS011;11875;49.356;2.718;2023-04-03T04:13:14;12.10;;;8.77;;
23404;SDS011;11875;49.356;2.718;2023-04-03T04:15:40;11.50;;;8.10;;
23404;SDS011;11875;49.356;2.718;2023-04-03T04:18:05;13.83;;;8.73;;
23404;SDS011;11875;49.356;2.718;2023-04-03T04:20:31;10.93;;;8.23;;
23404;SDS011;11875;49.356;2.718;2023-04-03T04:22:57;10.07;;;8.27;;
23404;SDS011;11875;49.356;2.718;2023-04-03T04:25:22;10.47;;;7.77;;
23404;SDS011;11875;49.356;2.718;2023-04-03T04:27:48;11.67;;;7.93;;
23404;SDS011;11875;49.356;2.718;2023-04-03T04:30:13;11.10;;;7.77;;
23404;SDS011;11875;49.356;2.718;2023-04-03T04:32:39;11.17;;;8.80;;
23404;SDS011;11875;49.356;2.718;2023-04-03T04:35:05;12.93;;;9.30;;
23404;SDS011;11875;49.356;2.718;2023-04-03T04:37:31;11.23;;;8.23;;
23404;SDS011;11875;49.356;2.718;2023-04-03T04:39:57;13.03;;;8.87;;
23404;SDS011;11875;49.356;2.718;2023-04-03T04:42:23;13.60;;;8.60;;
23404;SDS011;11875;49.356;2.718;2023-04-03T04:44:48;13.80;;;9.03;;
23404;SDS011;11875;49.356;2.718;2023-04-03T04:47:14;12.27;;;8.80;;
23404;SDS011;11875;49.356;2.718;2023-04-03T04:49:39;13.47;;;9.13;;
23404;SDS011;11875;49.356;2.718;2023-04-03T04:52:05;12.10;;;9.17;;
23404;SDS011;11875;49.356;2.718;2023-04-03T04:54:31;15.70;;;9.43;;
23404;SDS011;11875;49.356;2.718;2023-04-03T04:56:57;13.43;;;9.37;;
23404;SDS011;11875;49.356;2.718;2023-04-03T04:59:23;16.20;;;10.83;;
23404;SDS011;11875;49.356;2.718;2023-04-03T05:01:48;13.00;;;9.83;;
23404;SDS011;11875;49.356;2.718;2023-04-03T05:04:14;12.73;;;10.07;;
23404;SDS011;11875;49.356;2.718;2023-04-03T05:06:40;16.73;;;10.07;;
23404;SDS011;11875;49.356;2.718;2023-04-03T05:09:06;14.10;;;10.03;;
23404;SDS011;11875;49.356;2.718;2023-04-03T05:11:32;14.73;;;10.17;;
23404;SDS011;11875;49.356;2.718;2023-04-03T05:13:57;12.80;;;9.80;;
23404;SDS011;11875;49.356;2.718;2023-04-03T05:16:23;12.70;;;9.63;;
23404;SDS011;11875;49.356;2.718;2023-04-03T05:18:49;16.87;;;10.70;;
23404;SDS011;11875;49.356;2.718;2023-04-03T05:21:15;13.87;;;10.67;;
23404;SDS011;11875;49.356;2.718;2023-04-03T05:23:40;14.23;;;11.03;;
23404;SDS011;11875;49.356;2.718;2023-04-03T05:26:06;13.70;;;10.83;;
23404;SDS011;11875;49.356;2.718;2023-04-03T05:28:31;15.23;;;11.10;;
23404;SDS011;11875;49.356;2.718;2023-04-03T05:30:57;23.50;;;12.23;;
23404;SDS011;11875;49.356;2.718;2023-04-03T05:33:24;19.40;;;11.70;;
23404;SDS011;11875;49.356;2.718;2023-04-03T05:35:51;17.30;;;11.63;;
23404;SDS011;11875;49.356;2.718;2023-04-03T05:38:17;25.70;;;13.77;;
23404;SDS011;11875;49.356;2.718;2023-04-03T05:40:43;14.93;;;10.97;;
23404;SDS011;11875;49.356;2.718;2023-04-03T05:43:09;15.73;;;11.00;;
23404;SDS011;11875;49.356;2.718;2023-04-03T05:45:34;15.87;;;11.60;;
23404;SDS011;11875;49.356;2.718;2023-04-03T05:48:00;15.57;;;10.73;;
23404;SDS011;11875;49.356;2.718;2023-04-03T05:50:25;16.53;;;11.63;;
23404;SDS011;11875;49.356;2.718;2023-04-03T05:52:51;15.77;;;11.20;;
23404;SDS011;11875;49.356;2.718;2023-04-03T05:55:19;15.40;;;11.27;;
23404;SDS011;11875;49.356;2.718;2023-04-03T05:57:45;15.40;;;11.50;;
23404;SDS011;11875;49.356;2.718;2023-04-03T06:00:12;16.57;;;12.00;;
23404;SDS011;11875;49.356;2.718;2023-04-03T06:02:40;16.93;;;12.10;;
23404;SDS011;11875;49.356;2.718;2023-04-03T06:05:07;15.23;;;10.93;;
23404;SDS011;11875;49.356;2.718;2023-04-03T06:07:33;14.00;;;11.17;;
23404;SDS011;11875;49.356;2.718;2023-04-03T06:10:00;15.20;;;10.93;;
23404;SDS011;11875;49.356;2.718;2023-04-03T06:12:27;17.87;;;12.47;;
23404;SDS011;11875;49.356;2.718;2023-04-03T06:14:54;15.20;;;10.93;;
23404;SDS011;11875;49.356;2.718;2023-04-03T06:17:20;13.03;;;10.27;;
23404;SDS011;11875;49.356;2.718;2023-04-03T06:19:46;20.17;;;12.33;;
23404;SDS011;11875;49.356;2.718;2023-04-03T06:22:12;17.17;;;12.97;;
23404;SDS011;11875;49.356;2.718;2023-04-03T06:24:38;19.37;;;13.67;;
23404;SDS011;11875;49.356;2.718;2023-04-03T06:27:04;20.27;;;14.40;;
23404;SDS011;11875;49.356;2.718;2023-04-03T06:29:30;19.03;;;13.57;;
23404;SDS011;11875;49.356;2.718;2023-04-03T06:31:55;18.27;;;13.63;;
23404;SDS011;11875;49.356;2.718;2023-04-03T06:34:21;18.40;;;13.20;;
23404;SDS011;11875;49.356;2.718;2023-04-03T06:36:47;16.47;;;11.87;;
23404;SDS011;11875;49.356;2.718;2023-04-03T06:39:22;15.00;;;10.60;;
23404;SDS011;11875;49.356;2.718;2023-04-03T06:41:49;14.43;;;10.00;;
23404;SDS011;11875;49.356;2.718;2023-04-03T06:44:15;14.60;;;10.37;;
23404;SDS011;11875;49.356;2.718;2023-04-03T06:46:41;18.60;;;12.53;;
23404;SDS011;11875;49.356;2.718;2023-04-03T06:49:08;17.80;;;11.27;;
23404;SDS011;11875;49.356;2.718;2023-04-03T06:51:34;15.47;;;10.63;;
23404;SDS011;11875;49.356;2.718;2023-04-03T06:54:01;15.93;;;11.57;;
23404;SDS011;11875;49.356;2.718;2023-04-03T06:56:28;15.23;;;11.03;;
23404;SDS011;11875;49.356;2.718;2023-04-03T06:58:54;17.50;;;11.30;;
23404;SDS011;11875;49.356;2.718;2023-04-03T07:01:22;14.67;;;10.40;;
23404;SDS011;11875;49.356;2.718;2023-04-03T07:03:50;15.37;;;10.00;;
23404;SDS011;11875;49.356;2.718;2023-04-03T07:06:16;12.70;;;8.83;;
23404;SDS011;11875;49.356;2.718;2023-04-03T07:08:42;13.43;;;8.70;;
23404;SDS011;11875;49.356;2.718;2023-04-03T07:11:09;12.00;;;8.60;;
23404;SDS011;11875;49.356;2.718;2023-04-03T07:13:36;13.73;;;8.00;;
23404;SDS011;11875;49.356;2.718;2023-04-03T07:16:02;10.47;;;8.50;;
23404;SDS011;11875;49.356;2.718;2023-04-03T07:18:30;14.73;;;10.20;;
23404;SDS011;11875;49.356;2.718;2023-04-03T07:20:56;25.13;;;12.23;;
23404;SDS011;11875;49.356;2.718;2023-04-03T07:23:21;19.67;;;10.53;;
23404;SDS011;11875;49.356;2.718;2023-04-03T07:25:48;17.47;;;10.47;;
23404;SDS011;11875;49.356;2.718;2023-04-03T07:28:15;14.10;;;10.77;;
23404;SDS011;11875;49.356;2.718;2023-04-03T07:30:43;13.60;;;9.43;;
23404;SDS011;11875;49.356;2.718;2023-04-03T07:33:10;10.97;;;8.70;;
23404;SDS011;11875;49.356;2.718;2023-04-03T07:35:36;13.23;;;8.77;;
23404;SDS011;11875;49.356;2.718;2023-04-03T07:38:02;13.77;;;9.77;;
23404;SDS011;11875;49.356;2.718;2023-04-03T07:40:27;10.83;;;7.10;;
23404;SDS011;11875;49.356;2.718;2023-04-03T07:42:53;11.03;;;7.10;;
23404;SDS011;11875;49.356;2.718;2023-04-03T07:45:21;9.10;;;6.37;;
23404;SDS011;11875;49.356;2.718;2023-04-03T07:47:47;9.23;;;6.13;;
23404;SDS011;11875;49.356;2.718;2023-04-03T07:50:13;8.93;;;5.90;;
23404;SDS011;11875;49.356;2.718;2023-04-03T07:52:39;6.20;;;5.03;;
23404;SDS011;11875;49.356;2.718;2023-04-03T07:55:05;6.10;;;4.63;;
23404;SDS011;11875;49.356;2.718;2023-04-03T07:57:31;23.43;;;19.47;;
23404;SDS011;11875;49.356;2.718;2023-04-03T07:59:57;6.27;;;4.50;;
23404;SDS011;11875;49.356;2.718;2023-04-03T08:02:22;7.70;;;4.37;;
23404;SDS011;11875;49.356;2.718;2023-04-03T08:04:48;5.20;;;3.40;;
23404;SDS011;11875;49.356;2.718;2023-04-03T08:07:13;8.27;;;3.33;;
23404;SDS011;11875;49.356;2.718;2023-04-03T08:09:39;4.53;;;3.97;;
23404;SDS011;11875;49.356;2.718;2023-04-03T08:12:05;5.07;;;3.70;;
23404;SDS011;11875;49.356;2.718;2023-04-03T08:14:31;8.27;;;3.73;;
23404;SDS011;11875;49.356;2.718;2023-04-03T08:16:59;4.53;;;2.80;;
23404;SDS011;11875;49.356;2.718;2023-04-03T08:19:26;4.20;;;2.97;;
23404;SDS011;11875;49.356;2.718;2023-04-03T08:21:52;3.60;;;2.50;;
23404;SDS011;11875;49.356;2.718;2023-04-03T08:24:21;2.93;;;2.30;;
23404;SDS011;11875;49.356;2.718;2023-04-03T08:26:47;2.73;;;2.07;;
23404;SDS011;11875;49.356;2.718;2023-04-03T08:29:13;5.10;;;2.50;;
23404;SDS011;11875;49.356;2.718;2023-04-03T08:31:38;5.00;;;2.00;;
23404;SDS011;11875;49.356;2.718;2023-04-03T08:34:04;2.30;;;2.00;;
23404;SDS011;11875;49.356;2.718;2023-04-03T08:36:30;5.40;;;2.50;;
23404;SDS011;11875;49.356;2.718;2023-04-03T08:38:56;5.27;;;2.40;;
23404;SDS011;11875;49.356;2.718;2023-04-03T08:41:41;3.17;;;2.50;;
23404;SDS011;11875;49.356;2.718;2023-04-03T08:46:47;12.13;;;5.97;;
23404;SDS011;11875;49.356;2.718;2023-04-03T08:49:39;2.60;;;1.70;;
23404;SDS011;11875;49.356;2.718;2023-04-03T08:52:12;2.50;;;1.80;;
23404;SDS011;11875;49.356;2.718;2023-04-03T08:57:16;4.47;;;2.10;;
23404;SDS011;11875;49.356;2.718;2023-04-03T08:59:45;17.97;;;8.40;;
23404;SDS011;11875;49.356;2.718;2023-04-03T09:02:21;1.93;;;1.60;;
23404;SDS011;11875;49.356;2.718;2023-04-03T09:04:55;1.90;;;1.47;;
23404;SDS011;11875;49.356;2.718;2023-04-03T09:10:27;3.50;;;2.23;;
23404;SDS011;11875;49.356;2.718;2023-04-03T09:13:05;2.23;;;1.80;;
23404;SDS011;11875;49.356;2.718;2023-04-03T09:15:50;2.07;;;1.50;;
23404;SDS011;11875;49.356;2.718;2023-04-03T09:18:23;6.77;;;4.40;;
23404;SDS011;11875;49.356;2.718;2023-04-03T09:23:57;3.17;;;1.80;;
23404;SDS011;11875;49.356;2.718;2023-04-03T09:26:28;2.43;;;1.50;;
23404;SDS011;11875;49.356;2.718;2023-04-03T09:29:00;2.77;;;1.57;;
23404;SDS011;11875;49.356;2.718;2023-04-03T09:31:32;5.27;;;3.03;;
23404;SDS011;11875;49.356;2.718;2023-04-03T09:36:51;2.00;;;1.60;;
23404;SDS011;11875;49.356;2.718;2023-04-03T09:39:25;4.27;;;1.70;;
23404;SDS011;11875;49.356;2.718;2023-04-03T09:44:23;4.90;;;1.83;;
23404;SDS011;11875;49.356;2.718;2023-04-03T09:46:51;2.17;;;1.70;;
23404;SDS011;11875;49.356;2.718;2023-04-03T09:49:18;3.00;;;1.70;;
23404;SDS011;11875;49.356;2.718;2023-04-03T09:51:44;2.53;;;1.40;;
23404;SDS011;11875;49.356;2.718;2023-04-03T09:57:03;2.90;;;1.97;;
23404;SDS011;11875;49.356;2.718;2023-04-03T09:59:34;4.93;;;3.07;;
23404;SDS011;11875;49.356;2.718;2023-04-03T10:02:03;4.37;;;1.73;;
23404;SDS011;11875;49.356;2.718;2023-04-03T10:04:44;4.37;;;2.30;;
23404;SDS011;11875;49.356;2.718;2023-04-03T10:09:56;5.03;;;1.80;;
23404;SDS011;11875;49.356;2.718;2023-04-03T10:12:23;3.30;;;1.73;;
23404;SDS011;11875;49.356;2.718;2023-04-03T10:14:56;4.13;;;1.90;;
23404;SDS011;11875;49.356;2.718;2023-04-03T10:28:12;2.27;;;1.53;;
23404;SDS011;11875;49.356;2.718;2023-04-03T10:30:53;2.47;;;1.60;;
23404;SDS011;11875;49.356;2.718;2023-04-03T10:44:19;3.30;;;1.80;;
23404;SDS011;11875;49.356;2.718;2023-04-03T10:47:04;2.00;;;1.38;;
23404;SDS011;11875;49.356;2.718;2023-04-03T10:52:22;3.10;;;2.00;;
23404;SDS011;11875;49.356;2.718;2023-04-03T10:55:01;6.97;;;1.90;;
23404;SDS011;11875;49.356;2.718;2023-04-03T10:57:49;2.60;;;1.73;;
23404;SDS011;11875;49.356;2.718;2023-04-03T11:00:16;3.97;;;1.50;;
23404;SDS011;11875;49.356;2.718;2023-04-03T11:02:54;1.67;;;1.50;;
23404;SDS011;11875;49.356;2.718;2023-04-03T11:08:21;3.87;;;1.80;;
23404;SDS011;11875;49.356;2.718;2023-04-03T11:10:54;4.50;;;2.10;;
23404;SDS011;11875;49.356;2.718;2023-04-03T11:16:12;3.07;;;1.80;;
23404;SDS011;11875;49.356;2.718;2023-04-03T11:18:49;4.50;;;1.80;;
23404;SDS011;11875;49.356;2.718;2023-04-03T11:21:20;2.63;;;1.70;;
23404;SDS011;11875;49.356;2.718;2023-04-03T11:23:51;4.77;;;1.70;;
23404;SDS011;11875;49.356;2.718;2023-04-03T11:26:19;2.57;;;1.40;;
23404;SDS011;11875;49.356;2.718;2023-04-03T11:28:51;3.97;;;1.70;;
23404;SDS011;11875;49.356;2.718;2023-04-03T11:31:38;3.77;;;1.60;;
23404;SDS011;11875;49.356;2.718;2023-04-03T11:34:31;4.10;;;1.60;;
23404;SDS011;11875;49.356;2.718;2023-04-03T11:37:12;1.90;;;1.60;;
23404;SDS011;11875;49.356;2.718;2023-04-03T11:39:47;5.15;;;1.60;;
23404;SDS011;11875;49.356;2.718;2023-04-03T11:42:38;2.38;;;1.35;;
23404;SDS011;11875;49.356;2.718;2023-04-03T11:45:17;3.30;;;1.65;;
23404;SDS011;11875;49.356;2.718;2023-04-03T11:47:48;3.22;;;1.48;;
23404;SDS011;11875;49.356;2.718;2023-04-03T11:50:47;3.33;;;1.50;;
23404;SDS011;11875;49.356;2.718;2023-04-03T11:58:18;2.45;;;1.42;;
23404;SDS011;11875;49.356;2.718;2023-04-03T12:01:03;2.03;;;1.60;;
23404;SDS011;11875;49.356;2.718;2023-04-03T12:03:55;4.53;;;1.70;;
23404;SDS011;11875;49.356;2.718;2023-04-03T12:08:58;3.88;;;1.40;;
23404;SDS011;11875;49.356;2.718;2023-04-03T12:11:25;3.25;;;1.77;;
23404;SDS011;11875;49.356;2.718;2023-04-03T12:16:21;3.00;;;1.40;;
23404;SDS011;11875;49.356;2.718;2023-04-03T12:21:19;3.88;;;1.48;;
23404;SDS011;11875;49.356;2.718;2023-04-03T12:38:14;4.50;;;2.05;;
23404;SDS011;11875;49.356;2.718;2023-04-03T12:46:15;2.47;;;1.52;;
23404;SDS011;11875;49.356;2.718;2023-04-03T12:51:09;3.13;;;1.73;;
23404;SDS011;11875;49.356;2.718;2023-04-03T12:53:39;3.50;;;1.50;;
23404;SDS011;11875;49.356;2.718;2023-04-03T12:56:26;2.00;;;1.60;;
23404;SDS011;11875;49.356;2.718;2023-04-03T12:58:54;3.33;;;1.55;;
23404;SDS011;11875;49.356;2.718;2023-04-03T13:01:37;3.63;;;1.33;;
23404;SDS011;11875;49.356;2.718;2023-04-03T13:04:03;2.55;;;1.10;;
23404;SDS011;11875;49.356;2.718;2023-04-03T13:06:39;2.38;;;1.27;;
23404;SDS011;11875;49.356;2.718;2023-04-03T13:09:29;9.55;;;4.85;;
23404;SDS011;11875;49.356;2.718;2023-04-03T13:11:59;3.30;;;1.42;;
23404;SDS011;11875;49.356;2.718;2023-04-03T13:14:28;4.05;;;2.67;;
23404;SDS011;11875;49.356;2.718;2023-04-03T13:19:25;2.20;;;1.40;;
23404;SDS011;11875;49.356;2.718;2023-04-03T13:21:56;2.17;;;1.25;;
23404;SDS011;11875;49.356;2.718;2023-04-03T13:24:28;2.63;;;1.42;;
23404;SDS011;11875;49.356;2.718;2023-04-03T13:26:56;3.88;;;1.52;;
23404;SDS011;11875;49.356;2.718;2023-04-03T13:29:24;3.15;;;1.60;;
23404;SDS011;11875;49.356;2.718;2023-04-03T13:31:55;4.20;;;1.67;;
23404;SDS011;11875;49.356;2.718;2023-04-03T13:34:22;1.70;;;1.40;;
23404;SDS011;11875;49.356;2.718;2023-04-03T13:36:55;3.00;;;1.90;;
23404;SDS011;11875;49.356;2.718;2023-04-03T13:39:24;2.80;;;1.88;;
23404;SDS011;11875;49.356;2.718;2023-04-03T13:42:24;2.67;;;1.70;;
23404;SDS011;11875;49.356;2.718;2023-04-03T13:47:54;3.65;;;1.60;;
23404;SDS011;11875;49.356;2.718;2023-04-03T13:50:50;3.10;;;1.58;;
23404;SDS011;11875;49.356;2.718;2023-04-03T13:53:22;3.33;;;1.92;;
23404;SDS011;11875;49.356;2.718;2023-04-03T13:55:56;2.22;;;1.50;;
23404;SDS011;11875;49.356;2.718;2023-04-03T13:58:25;3.15;;;1.58;;
23404;SDS011;11875;49.356;2.718;2023-04-03T14:00:56;3.05;;;1.40;;
23404;SDS011;11875;49.356;2.718;2023-04-03T14:03:46;3.85;;;1.55;;
23404;SDS011;11875;49.356;2.718;2023-04-03T14:06:17;3.72;;;2.00;;
23404;SDS011;11875;49.356;2.718;2023-04-03T14:08:44;3.88;;;1.70;;
23404;SDS011;11875;49.356;2.718;2023-04-03T14:11:15;5.72;;;1.98;;
23404;SDS011;11875;49.356;2.718;2023-04-03T14:13:44;2.40;;;1.42;;
23404;SDS011;11875;49.356;2.718;2023-04-03T14:16:15;2.55;;;1.70;;
23404;SDS011;11875;49.356;2.718;2023-04-03T14:18:44;1.90;;;1.40;;
23404;SDS011;11875;49.356;2.718;2023-04-03T14:21:11;4.32;;;1.58;;
23404;SDS011;11875;49.356;2.718;2023-04-03T14:23:39;3.15;;;2.10;;
23404;SDS011;11875;49.356;2.718;2023-04-03T14:26:12;3.80;;;1.80;;
23404;SDS011;11875;49.356;2.718;2023-04-03T14:28:50;3.00;;;1.50;;
23404;SDS011;11875;49.356;2.718;2023-04-03T14:31:18;2.42;;;1.90;;
23404;SDS011;11875;49.356;2.718;2023-04-03T14:33:45;6.53;;;1.85;;
23404;SDS011;11875;49.356;2.718;2023-04-03T14:36:12;2.10;;;1.50;;
23404;SDS011;11875;49.356;2.718;2023-04-03T14:38:42;4.32;;;1.67;;
23404;SDS011;11875;49.356;2.718;2023-04-03T14:41:12;4.72;;;1.70;;
23404;SDS011;11875;49.356;2.718;2023-04-03T14:43:39;3.40;;;1.63;;
23404;SDS011;11875;49.356;2.718;2023-04-03T14:46:05;3.72;;;2.05;;
23404;SDS011;11875;49.356;2.718;2023-04-03T14:48:43;4.10;;;1.83;;
23404;SDS011;11875;49.356;2.718;2023-04-03T14:51:10;4.85;;;1.80;;
23404;SDS011;11875;49.356;2.718;2023-04-03T14:53:37;5.43;;;1.58;;
23404;SDS011;11875;49.356;2.718;2023-04-03T14:56:08;1.95;;;1.70;;
23404;SDS011;11875;49.356;2.718;2023-04-03T14:58:36;3.45;;;1.73;;
23404;SDS011;11875;49.356;2.718;2023-04-03T15:01:02;4.75;;;1.77;;
23404;SDS011;11875;49.356;2.718;2023-04-03T15:03:28;4.28;;;1.80;;
23404;SDS011;11875;49.356;2.718;2023-04-03T15:05:54;2.78;;;1.77;;
23404;SDS011;11875;49.356;2.718;2023-04-03T15:08:23;3.95;;;1.88;;
23404;SDS011;11875;49.356;2.718;2023-04-03T15:10:51;3.00;;;1.55;;
23404;SDS011;11875;49.356;2.718;2023-04-03T15:13:23;1.92;;;1.52;;
23404;SDS011;11875;49.356;2.718;2023-04-03T15:15:50;2.45;;;1.48;;
23404;SDS011;11875;49.356;2.718;2023-04-03T15:18:18;3.65;;;1.52;;
23404;SDS011;11875;49.356;2.718;2023-04-03T15:20:47;3.03;;;1.65;;
23404;SDS011;11875;49.356;2.718;2023-04-03T15:23:13;3.17;;;1.80;;
23404;SDS011;11875;49.356;2.718;2023-04-03T15:25:44;3.13;;;1.83;;
23404;SDS011;11875;49.356;2.718;2023-04-03T15:30:52;2.67;;;1.80;;
23404;SDS011;11875;49.356;2.718;2023-04-03T15:33:19;4.30;;;2.00;;
23404;SDS011;11875;49.356;2.718;2023-04-03T15:35:44;4.20;;;1.80;;
23404;SDS011;11875;49.356;2.718;2023-04-03T15:38:10;4.03;;;1.80;;
23404;SDS011;11875;49.356;2.718;2023-04-03T15:40:36;2.50;;;1.80;;
23404;SDS011;11875;49.356;2.718;2023-04-03T15:43:02;3.65;;;1.98;;
23404;SDS011;11875;49.356;2.718;2023-04-03T15:45:28;4.25;;;2.00;;
23404;SDS011;11875;49.356;2.718;2023-04-03T15:47:55;4.10;;;1.48;;
23404;SDS011;11875;49.356;2.718;2023-04-03T15:50:21;4.53;;;1.85;;
23404;SDS011;11875;49.356;2.718;2023-04-03T15:52:49;2.33;;;1.88;;
23404;SDS011;11875;49.356;2.718;2023-04-03T15:55:19;2.80;;;1.90;;
23404;SDS011;11875;49.356;2.718;2023-04-03T15:57:46;2.95;;;1.80;;
23404;SDS011;11875;49.356;2.718;2023-04-03T16:00:12;3.17;;;1.70;;
23404;SDS011;11875;49.356;2.718;2023-04-03T16:02:38;3.78;;;1.83;;
23404;SDS011;11875;49.356;2.718;2023-04-03T16:05:04;4.10;;;2.17;;
23404;SDS011;11875;49.356;2.718;2023-04-03T16:07:30;7.00;;;3.60;;
23404;SDS011;11875;49.356;2.718;2023-04-03T16:09:56;4.97;;;1.85;;
23404;SDS011;11875;49.356;2.718;2023-04-03T16:12:21;3.10;;;1.55;;
23404;SDS011;11875;49.356;2.718;2023-04-03T16:14:47;5.45;;;1.80;;
23404;SDS011;11875;49.356;2.718;2023-04-03T16:17:13;8.32;;;1.90;;
23404;SDS011;11875;49.356;2.718;2023-04-03T16:19:38;2.80;;;1.70;;
23404;SDS011;11875;49.356;2.718;2023-04-03T16:22:04;3.17;;;1.75;;
23404;SDS011;11875;49.356;2.718;2023-04-03T16:24:30;4.55;;;1.90;;
23404;SDS011;11875;49.356;2.718;2023-04-03T16:26:57;3.47;;;1.75;;
23404;SDS011;11875;49.356;2.718;2023-04-03T16:29:23;2.45;;;1.83;;
23404;SDS011;11875;49.356;2.718;2023-04-03T16:31:48;3.25;;;2.25;;
23404;SDS011;11875;49.356;2.718;2023-04-03T16:34:14;6.18;;;2.58;;